Time;durP1;ratioP1;P1;durP2;ratioP2;P2;SDS_P1;SDS_P2;PMS_P1;PMS_P2;Temp;Humidity;BMP_temperature;BMP_pressure;BME280_temperature;BME280_humidity;BME280_pressure;Samples;Min_cycle;Max_cycle;Signal;HPM_P1;HPM_P2
2023/03/16 00:01:41;;;;;;;4.95;1.45;;;;;;;-1.01;48.64;101884.75;5057732;28;20033;-69
2023/03/16 00:04:07;;;;;;;4.30;0.82;;;;;;;-0.94;48.48;101878.94;5054477;28;20059;-70
2023/03/16 00:06:32;;;;;;;3.03;1.83;;;;;;;-0.97;47.98;101879.72;5048441;28;20036;-69
2023/03/16 00:08:58;;;;;;;7.30;1.38;;;;;;;-0.95;47.82;101872.09;5056163;28;20070;-70
2023/03/16 00:11:25;;;;;;;8.82;1.45;;;;;;;-0.93;47.81;101877.22;5056257;28;20044;-68
2023/03/16 00:13:50;;;;;;;4.28;1.42;;;;;;;-0.87;47.57;101869.69;5055540;28;20118;-68
2023/03/16 00:16:16;;;;;;;3.45;1.35;;;;;;;-0.91;47.43;101878.13;5036938;28;20036;-67
2023/03/16 00:18:42;;;;;;;8.25;1.55;;;;;;;-1.06;47.63;101873.47;5036706;28;20062;-69
2023/03/16 00:21:08;;;;;;;8.65;1.45;;;;;;;-0.90;46.48;101872.19;5038578;28;20036;-66
2023/03/16 00:23:35;;;;;;;8.02;1.10;;;;;;;-0.97;46.67;101872.03;5057083;28;20055;-66
2023/03/16 00:26:03;;;;;;;6.80;1.23;;;;;;;-0.90;46.51;101864.47;5037836;28;20106;-67
2023/03/16 00:28:34;;;;;;;4.93;1.33;;;;;;;-1.01;46.58;101861.66;5036612;28;20037;-68
2023/03/16 00:31:04;;;;;;;2.55;0.93;;;;;;;-1.08;46.43;101852.91;5050682;28;20044;-67
2023/03/16 00:33:33;;;;;;;3.00;1.02;;;;;;;-1.04;46.21;101851.31;5055564;28;20036;-68
2023/03/16 00:36:03;;;;;;;4.78;0.80;;;;;;;-1.06;46.22;101845.22;5054385;28;20600;-67
2023/03/16 00:38:33;;;;;;;5.22;1.48;;;;;;;-1.09;45.86;101848.59;5055390;28;20358;-65
2023/03/16 00:41:02;;;;;;;3.70;1.25;;;;;;;-1.03;45.73;101853.91;5052954;28;20596;-67
2023/03/16 00:43:28;;;;;;;3.05;1.15;;;;;;;-0.99;45.84;101850.59;5055248;28;20036;-68
2023/03/16 00:46:05;;;;;;;3.42;0.82;;;;;;;-1.03;45.61;101856.47;5053073;28;20121;-68
2023/03/16 00:48:33;;;;;;;3.45;0.93;;;;;;;-0.92;44.62;101855.88;5056113;28;20040;-68
2023/03/16 00:51:05;;;;;;;7.95;1.30;;;;;;;-0.93;44.60;101856.69;5053303;28;20466;-67
2023/03/16 00:53:34;;;;;;;7.03;1.23;;;;;;;-0.99;44.53;101854.88;5043663;28;20564;-70
2023/03/16 00:56:04;;;;;;;4.30;0.93;;;;;;;-1.01;44.20;101841.13;5054070;28;20047;-69
2023/03/16 00:58:35;;;;;;;10.93;1.40;;;;;;;-0.99;44.14;101850.59;5046063;28;20179;-70
2023/03/16 01:01:10;;;;;;;3.75;0.68;;;;;;;-0.93;44.07;101844.72;5050469;28;20040;-70
2023/03/16 01:03:35;;;;;;;5.45;1.00;;;;;;;-0.85;43.80;101847.47;5037348;28;20070;-70
2023/03/16 01:06:09;;;;;;;5.47;0.95;;;;;;;-0.88;43.80;101847.44;5043284;28;20525;-69
2023/03/16 01:08:37;;;;;;;2.80;0.63;;;;;;;-0.92;44.26;101846.47;5055191;28;20039;-69
2023/03/16 01:11:05;;;;;;;5.63;0.52;;;;;;;-0.89;43.77;101845.69;5052851;28;20056;-69
2023/03/16 01:13:31;;;;;;;4.18;0.50;;;;;;;-0.81;43.56;101836.47;5055734;28;20032;-70
2023/03/16 01:15:57;;;;;;;4.43;0.50;;;;;;;-0.89;43.75;101843.09;5052194;28;20036;-69
2023/03/16 01:18:24;;;;;;;2.35;0.80;;;;;;;-0.90;43.31;101834.53;5056274;28;20048;-71
2023/03/16 01:20:49;;;;;;;4.50;1.02;;;;;;;-0.92;43.43;101831.06;5051341;28;20048;-71
2023/03/16 01:23:17;;;;;;;2.55;0.75;;;;;;;-0.86;43.47;101820.97;5053782;28;20028;-67
2023/03/16 01:25:42;;;;;;;1.50;0.55;;;;;;;-0.88;43.51;101821.75;5043739;28;20338;-72
2023/03/16 01:28:09;;;;;;;2.55;0.57;;;;;;;-0.88;43.18;101826.91;5055187;28;20492;-71
2023/03/16 01:30:34;;;;;;;7.85;1.00;;;;;;;-0.95;43.48;101823.31;5042155;28;20047;-66
2023/03/16 01:33:00;;;;;;;0.98;0.30;;;;;;;-0.95;43.50;101814.72;5042703;28;20505;-66
2023/03/16 01:35:26;;;;;;;3.88;0.40;;;;;;;-0.95;43.34;101818.19;5038894;28;20044;-67
2023/03/16 01:37:52;;;;;;;3.92;0.55;;;;;;;-0.95;43.67;101805.34;5040533;28;21079;-67
2023/03/16 01:40:22;;;;;;;4.10;0.70;;;;;;;-0.90;43.45;101808.03;5053738;28;20066;-65
2023/03/16 01:42:59;;;;;;;3.53;0.73;;;;;;;-0.91;43.29;101802.00;5052294;28;20311;-66
2023/03/16 01:46:03;;;;;;;1.38;0.30;;;;;;;-0.86;43.55;101795.28;5038749;28;20097;-67
2023/03/16 01:48:36;;;;;;;2.72;0.85;;;;;;;-0.79;43.37;101792.00;5045953;28;20031;-67
2023/03/16 01:51:10;;;;;;;1.98;0.68;;;;;;;-0.68;43.14;101784.56;5042944;28;20036;-67
2023/03/16 01:53:40;;;;;;;3.10;1.25;;;;;;;-0.68;43.43;101786.22;5039640;28;20032;-66
2023/03/16 01:56:08;;;;;;;3.22;0.60;;;;;;;-0.65;43.09;101782.03;5053050;28;20125;-66
2023/03/16 01:58:36;;;;;;;3.78;0.77;;;;;;;-0.65;43.25;101782.03;5034315;28;20468;-66
2023/03/16 02:01:03;;;;;;;2.10;0.30;;;;;;;-0.61;43.10;101781.28;5051504;28;20047;-66
2023/03/16 02:03:33;;;;;;;4.28;0.57;;;;;;;-0.66;43.10;101777.75;5036582;28;20074;-66
2023/03/16 02:06:18;;;;;;;6.50;0.70;;;;;;;-0.57;43.05;101772.81;5032533;28;20067;-66
2023/03/16 02:08:49;;;;;;;2.93;0.60;;;;;;;-0.57;42.63;101772.81;5044611;28;20036;-65
2023/03/16 02:11:16;;;;;;;5.63;0.82;;;;;;;-0.47;42.84;101767.84;5031116;28;20048;-67
2023/03/16 02:14:01;;;;;;;3.90;0.80;;;;;;;-0.46;42.30;101759.28;5044895;28;20035;-65
2023/03/16 02:16:26;;;;;;;1.77;0.43;;;;;;;-0.47;42.83;101765.28;5037990;28;20043;-66
2023/03/16 02:18:52;;;;;;;2.33;0.57;;;;;;;-0.35;42.18;101762.94;5056097;28;22499;-67
2023/03/16 02:21:53;;;;;;;1.95;0.35;;;;;;;-0.43;42.46;101770.50;5036250;28;22159;-64
2023/03/16 02:24:20;;;;;;;1.42;0.30;;;;;;;-0.33;42.41;101771.53;5037214;28;20055;-65
2023/03/16 02:27:10;;;;;;;3.25;0.80;;;;;;;-0.36;42.72;101762.09;5053758;28;20040;-68
2023/03/16 02:30:03;;;;;;;3.33;0.88;;;;;;;-0.56;42.69;101759.13;5038453;28;20028;-69
2023/03/16 02:32:35;;;;;;;6.10;0.75;;;;;;;-0.65;42.97;101760.63;5042308;28;20036;-68
2023/03/16 02:35:02;;;;;;;3.50;0.50;;;;;;;-0.68;43.26;101764.00;5043359;28;20091;-69
2023/03/16 02:37:28;;;;;;;4.30;0.95;;;;;;;-0.72;43.27;101758.78;5036222;28;20746;-68
2023/03/16 02:39:54;;;;;;;3.13;0.77;;;;;;;-0.84;43.40;101761.94;5043691;28;20048;-67
2023/03/16 02:42:25;;;;;;;2.28;0.65;;;;;;;-0.74;43.33;101757.88;5037158;28;20032;-67
2023/03/16 02:44:57;;;;;;;1.38;0.50;;;;;;;-0.74;43.30;101761.31;5035917;28;20063;-68
2023/03/16 02:47:40;;;;;;;1.38;0.20;;;;;;;-0.73;43.57;101757.88;5035935;28;20128;-67
2023/03/16 02:50:07;;;;;;;1.52;0.45;;;;;;;-0.74;43.27;101753.59;5051737;28;20036;-68
2023/03/16 02:52:35;;;;;;;4.43;1.05;;;;;;;-0.84;43.57;101756.78;5032008;28;20051;-68
2023/03/16 02:55:01;;;;;;;2.50;0.68;;;;;;;-0.82;43.64;101750.00;5044911;28;20045;-68
2023/03/16 02:57:26;;;;;;;2.13;0.70;;;;;;;-0.91;43.44;101753.22;5037988;28;20029;-68
2023/03/16 02:59:53;;;;;;;2.47;0.43;;;;;;;-0.86;43.33;101748.19;5043677;28;20059;-68
2023/03/16 03:02:18;;;;;;;5.35;0.60;;;;;;;-0.88;43.32;101753.31;5039402;28;20039;-69
2023/03/16 03:04:45;;;;;;;2.95;0.43;;;;;;;-0.93;43.65;101748.91;5055455;28;20099;-70
2023/03/16 03:07:14;;;;;;;4.25;0.30;;;;;;;-0.93;43.34;101746.34;5056377;28;20512;-68
2023/03/16 03:09:55;;;;;;;5.30;0.80;;;;;;;-0.86;43.16;101746.53;5046967;28;20058;-69
2023/03/16 03:12:21;;;;;;;3.65;0.93;;;;;;;-0.80;43.37;101744.06;5038381;28;20028;-69
2023/03/16 03:14:47;;;;;;;2.13;0.82;;;;;;;-0.79;43.39;101750.94;5054706;28;20125;-69
2023/03/16 03:17:15;;;;;;;2.85;0.32;;;;;;;-0.71;43.22;101751.09;5039982;28;20169;-69
2023/03/16 03:19:41;;;;;;;7.47;1.08;;;;;;;-0.68;43.06;101746.03;5055117;28;20089;-68
2023/03/16 03:22:07;;;;;;;1.45;0.55;;;;;;;-0.56;43.04;101742.84;5056844;28;20413;-71
2023/03/16 03:24:33;;;;;;;3.60;0.65;;;;;;;-0.46;42.98;101751.59;5045654;28;20728;-72
2023/03/16 03:27:00;;;;;;;3.85;0.55;;;;;;;-0.39;42.55;101756.03;5057846;28;20032;-71
2023/03/16 03:29:33;;;;;;;1.75;0.40;;;;;;;-0.36;42.64;101750.94;5039120;28;20313;-72
2023/03/16 03:32:05;;;;;;;6.00;0.55;;;;;;;-0.22;42.48;101743.50;5058481;28;20029;-72
2023/03/16 03:34:31;;;;;;;2.45;0.40;;;;;;;-0.27;42.57;101745.13;5037977;28;20107;-72
2023/03/16 03:36:57;;;;;;;2.13;0.50;;;;;;;-0.22;42.49;101743.50;5056504;28;20028;-72
2023/03/16 03:39:24;;;;;;;6.00;0.80;;;;;;;-0.24;42.40;101737.47;5054695;28;20074;-73
2023/03/16 03:41:53;;;;;;;4.65;1.00;;;;;;;-0.14;42.61;101747.94;5046536;28;20029;-72
2023/03/16 03:44:22;;;;;;;1.05;0.32;;;;;;;-0.18;42.46;101735.88;5035420;28;20115;-73
2023/03/16 03:46:50;;;;;;;6.05;0.93;;;;;;;-0.23;42.46;101727.22;5056594;28;20246;-73
2023/03/16 03:49:16;;;;;;;4.10;1.25;;;;;;;-0.18;42.47;101729.88;5041618;28;20040;-73
2023/03/16 03:51:42;;;;;;;6.40;0.80;;;;;;;-0.09;42.16;101718.91;5057687;28;20401;-72
2023/03/16 03:54:15;;;;;;;4.05;0.90;;;;;;;-0.16;42.86;101713.63;5043677;28;20086;-73
2023/03/16 03:57:09;;;;;;;3.63;0.50;;;;;;;-0.14;42.37;101711.97;5031818;28;20079;-72
2023/03/16 03:59:41;;;;;;;6.75;1.00;;;;;;;-0.09;42.58;101711.19;5041053;28;20044;-73
2023/03/16 04:02:13;;;;;;;3.70;0.50;;;;;;;-0.19;42.84;101703.31;5057366;28;20924;-73
2023/03/16 04:04:43;;;;;;;2.43;0.90;;;;;;;-0.08;42.37;101706.09;5038534;28;20044;-73
2023/03/16 04:07:11;;;;;;;6.65;0.77;;;;;;;0.03;42.33;101703.69;5055998;28;20028;-69
2023/03/16 04:09:38;;;;;;;6.65;0.95;;;;;;;-0.05;42.28;101706.13;5044738;28;20148;-70
2023/03/16 04:12:06;;;;;;;2.65;0.50;;;;;;;0.08;41.95;101702.06;5040690;28;20036;-71
2023/03/16 04:14:32;;;;;;;3.88;0.63;;;;;;;-0.19;42.40;101693.03;5045765;28;20127;-70
2023/03/16 04:17:00;;;;;;;8.68;0.80;;;;;;;0.15;41.81;101697.91;5057512;28;20035;-68
2023/03/16 04:19:27;;;;;;;3.13;0.70;;;;;;;0.22;41.76;101690.28;5042854;28;20892;-70
2023/03/16 04:21:54;;;;;;;3.50;1.48;;;;;;;0.06;42.15;101688.31;5042816;28;20024;-70
2023/03/16 04:24:21;;;;;;;4.60;1.00;;;;;;;-0.06;42.08;101688.97;5039755;28;20392;-70
2023/03/16 04:26:47;;;;;;;6.05;1.20;;;;;;;0.03;41.92;101688.25;5043302;28;20090;-70
2023/03/16 04:29:16;;;;;;;2.88;0.60;;;;;;;0.36;41.38;101687.06;5048636;28;20049;-70
2023/03/16 04:31:43;;;;;;;1.42;0.68;;;;;;;0.05;41.60;101682.31;5060837;28;20040;-69
2023/03/16 04:34:10;;;;;;;4.70;0.95;;;;;;;0.20;41.58;101679.13;5044629;28;20028;-70
2023/03/16 04:36:37;;;;;;;2.78;1.40;;;;;;;0.31;41.27;101678.44;5028806;28;20166;-67
2023/03/16 04:39:04;;;;;;;5.70;1.27;;;;;;;0.18;41.67;101679.94;5034444;28;20032;-70
2023/03/16 04:41:31;;;;;;;2.85;0.80;;;;;;;0.19;41.94;101676.50;5054807;28;20024;-67
2023/03/16 04:44:07;;;;;;;2.35;1.05;;;;;;;0.24;41.69;101673.19;5045013;28;20110;-67
2023/03/16 04:46:34;;;;;;;7.20;1.25;;;;;;;0.32;41.73;101667.28;5053772;28;20039;-71
2023/03/16 04:49:03;;;;;;;6.10;0.98;;;;;;;0.08;41.63;101663.50;5044888;28;20063;-70
2023/03/16 04:51:29;;;;;;;4.68;1.27;;;;;;;0.07;42.10;101666.91;5053544;28;20044;-70
2023/03/16 04:54:03;;;;;;;3.92;1.02;;;;;;;0.17;42.04;101655.94;5041460;28;20032;-70
2023/03/16 04:56:33;;;;;;;3.97;1.10;;;;;;;0.29;41.52;101655.25;5042661;28;20043;-71
2023/03/16 04:59:02;;;;;;;3.90;1.38;;;;;;;0.31;41.79;101655.28;5036382;28;20085;-68
2023/03/16 05:01:33;;;;;;;6.60;1.48;;;;;;;0.21;41.78;101641.41;5034693;28;20043;-68
2023/03/16 05:04:01;;;;;;;4.63;1.15;;;;;;;0.21;41.80;101647.44;5043411;28;20511;-73
2023/03/16 05:06:30;;;;;;;4.07;0.77;;;;;;;0.25;41.88;101644.03;5043073;28;20028;-73
2023/03/16 05:08:59;;;;;;;3.83;1.50;;;;;;;0.28;41.63;101645.81;5040714;28;20563;-72
2023/03/16 05:11:25;;;;;;;5.55;1.27;;;;;;;0.06;42.05;101642.06;5036506;28;20511;-72
2023/03/16 05:13:56;;;;;;;3.03;1.17;;;;;;;0.40;41.81;101640.00;5040678;28;20040;-69
2023/03/16 05:16:22;;;;;;;3.08;1.65;;;;;;;0.31;41.54;101632.16;5051836;28;20788;-69
2023/03/16 05:18:48;;;;;;;6.03;1.05;;;;;;;0.40;41.21;101633.13;5025534;28;20059;-73
2023/03/16 05:21:15;;;;;;;2.63;0.80;;;;;;;0.41;41.02;101632.31;5052832;28;20233;-74
2023/03/16 05:23:51;;;;;;;4.22;1.02;;;;;;;0.12;41.94;101631.84;5045485;28;20036;-73
2023/03/16 05:26:18;;;;;;;5.57;1.80;;;;;;;0.39;40.92;101630.53;5038815;28;20461;-74
2023/03/16 05:28:44;;;;;;;5.25;1.23;;;;;;;0.54;40.99;101630.75;5045846;28;20462;-73
2023/03/16 05:31:13;;;;;;;4.32;1.40;;;;;;;0.52;40.80;101622.16;5030366;28;20105;-73
2023/03/16 05:33:44;;;;;;;9.50;1.27;;;;;;;0.20;41.31;101622.56;5044492;28;20036;-68
2023/03/16 05:36:14;;;;;;;4.20;0.85;;;;;;;0.39;40.90;101627.97;5031617;28;20373;-69
2023/03/16 05:38:42;;;;;;;4.50;1.65;;;;;;;0.35;40.66;101623.63;5029038;28;20654;-69
2023/03/16 05:41:11;;;;;;;3.30;1.23;;;;;;;0.50;40.61;101634.13;5039732;28;20269;-69
2023/03/16 05:43:47;;;;;;;3.25;1.02;;;;;;;0.26;40.96;101629.50;5044392;28;20097;-69
2023/03/16 05:46:14;;;;;;;5.03;1.08;;;;;;;0.19;40.75;101633.69;5047965;28;20039;-70
2023/03/16 05:48:41;;;;;;;4.75;0.90;;;;;;;0.04;41.64;101643.72;5044119;28;20038;-68
2023/03/16 05:51:08;;;;;;;4.65;0.90;;;;;;;0.62;40.34;101633.44;5036198;28;20052;-68
2023/03/16 05:53:34;;;;;;;1.65;0.90;;;;;;;0.58;40.35;101636.81;5041435;28;20714;-68
2023/03/16 05:56:16;;;;;;;3.65;1.00;;;;;;;0.46;40.48;101633.22;5050803;28;20055;-68
2023/03/16 05:58:44;;;;;;;4.68;1.50;;;;;;;0.47;40.23;101634.94;5040634;28;20036;-69
2023/03/16 06:01:12;;;;;;;8.43;0.90;;;;;;;0.10;41.03;101632.66;5038362;28;20615;-69
2023/03/16 06:03:38;;;;;;;4.80;1.48;;;;;;;0.19;40.69;101643.97;5040889;28;20044;-70
2023/03/16 06:06:06;;;;;;;5.03;1.20;;;;;;;0.63;40.25;101636.00;5024642;28;20036;-70
2023/03/16 06:08:40;;;;;;;3.22;0.90;;;;;;;0.33;40.49;101635.59;5037674;28;20029;-76
2023/03/16 06:11:09;;;;;;;10.13;1.27;;;;;;;0.54;40.31;101637.59;5037094;28;20176;-76
2023/03/16 06:13:35;;;;;;;4.05;1.30;;;;;;;0.75;40.22;101637.03;5035697;28;21491;-76
2023/03/16 06:16:01;;;;;;;7.50;1.23;;;;;;;0.49;40.23;101642.69;5054069;28;20036;-76
2023/03/16 06:18:27;;;;;;;1.90;0.88;;;;;;;0.37;40.49;101630.53;5038754;28;20036;-71
2023/03/16 06:20:53;;;;;;;6.25;1.88;;;;;;;0.62;40.64;101631.72;5053938;28;20657;-73
2023/03/16 06:23:20;;;;;;;6.22;1.63;;;;;;;0.36;40.34;101626.22;5037478;28;20398;-66
2023/03/16 06:25:47;;;;;;;3.97;1.55;;;;;;;0.81;40.36;101630.25;5037015;28;20033;-67
2023/03/16 06:28:13;;;;;;;2.80;0.75;;;;;;;0.79;40.06;101631.06;5040708;28;20028;-68
2023/03/16 06:30:39;;;;;;;5.30;1.38;;;;;;;0.86;39.60;101632.91;5038597;28;20058;-69
2023/03/16 06:33:05;;;;;;;5.82;1.63;;;;;;;0.67;40.26;101629.22;5046082;28;20456;-69
2023/03/16 06:35:32;;;;;;;4.05;0.90;;;;;;;0.66;40.07;101620.63;5054960;28;20496;-66
2023/03/16 06:38:09;;;;;;;4.50;2.33;;;;;;;0.31;40.68;101632.16;5048772;28;20036;-67
2023/03/16 06:40:54;;;;;;;4.60;0.98;;;;;;;0.87;39.51;101630.31;5039439;28;20093;-67
2023/03/16 06:43:21;;;;;;;2.00;0.73;;;;;;;1.06;39.48;101634.00;5045752;28;20892;-68
2023/03/16 06:45:46;;;;;;;3.47;0.88;;;;;;;0.82;39.93;101626.84;5041937;28;20085;-68
2023/03/16 06:48:12;;;;;;;2.95;1.13;;;;;;;0.75;39.78;101630.19;5042890;28;20501;-67
2023/03/16 06:50:38;;;;;;;4.65;1.25;;;;;;;0.73;39.62;101624.16;5052646;28;20048;-69
2023/03/16 06:53:03;;;;;;;3.30;0.80;;;;;;;0.66;39.77;101625.78;5047213;28;20050;-68
2023/03/16 06:55:31;;;;;;;1.83;0.85;;;;;;;0.57;39.89;101635.97;5044904;28;20135;-66
2023/03/16 06:57:58;;;;;;;5.07;1.13;;;;;;;0.93;39.65;101634.72;5042417;28;20032;-66
2023/03/16 07:00:24;;;;;;;6.05;1.02;;;;;;;1.20;39.13;101621.28;5054244;28;20037;-66
2023/03/16 07:02:50;;;;;;;3.20;1.02;;;;;;;0.79;39.89;101631.97;5055430;28;20036;-74
2023/03/16 07:05:16;;;;;;;6.82;1.25;;;;;;;1.19;39.56;101637.56;5040919;28;20607;-74
2023/03/16 07:07:44;;;;;;;2.00;1.42;;;;;;;1.18;39.21;101635.00;5054646;28;20043;-74
2023/03/16 07:10:16;;;;;;;4.13;1.30;;;;;;;1.54;38.87;101638.84;5057311;28;20175;-72
2023/03/16 07:12:43;;;;;;;2.60;0.75;;;;;;;1.24;39.30;101629.91;5053028;28;20031;-73
2023/03/16 07:15:09;;;;;;;4.70;1.60;;;;;;;1.29;39.18;101633.41;5047517;28;20571;-72
2023/03/16 07:17:35;;;;;;;5.25;1.13;;;;;;;1.24;39.39;101635.94;5038570;28;20029;-71
2023/03/16 07:20:04;;;;;;;2.88;1.00;;;;;;;1.38;38.98;101632.63;5042780;28;20576;-72
2023/03/16 07:22:31;;;;;;;3.08;1.52;;;;;;;1.62;38.55;101632.06;5052985;28;20029;-72
2023/03/16 07:24:58;;;;;;;7.50;1.33;;;;;;;1.24;39.43;101629.91;5039343;28;20185;-69
2023/03/16 07:27:28;;;;;;;1.92;0.93;;;;;;;1.46;39.03;101638.75;5054247;28;20039;-68
2023/03/16 07:29:55;;;;;;;2.65;1.02;;;;;;;1.68;38.82;101643.25;5045128;28;20040;-67
2023/03/16 07:32:21;;;;;;;4.28;0.95;;;;;;;1.69;38.22;101645.00;5054611;28;20040;-67
2023/03/16 07:34:48;;;;;;;2.03;0.90;;;;;;;1.72;38.31;101642.44;5039471;28;20086;-66
2023/03/16 07:37:15;;;;;;;5.22;1.50;;;;;;;1.74;38.81;101637.31;5038170;28;20028;-68
2023/03/16 07:39:43;;;;;;;3.22;0.85;;;;;;;1.83;38.01;101641.69;5054953;28;20130;-65
2023/03/16 07:42:16;;;;;;;3.03;1.02;;;;;;;1.81;38.39;101643.38;5053868;28;20071;-67
2023/03/16 07:44:58;;;;;;;3.00;0.90;;;;;;;1.84;38.03;101646.84;5047705;28;20803;-65
2023/03/16 07:47:24;;;;;;;2.92;0.88;;;;;;;1.62;37.98;101647.50;5055078;28;20032;-67
2023/03/16 07:49:52;;;;;;;5.45;1.40;;;;;;;1.38;38.97;101645.50;5044840;28;20037;-67
2023/03/16 07:52:18;;;;;;;6.63;1.20;;;;;;;1.77;38.98;101652.78;5039937;28;20047;-72
2023/03/16 07:54:43;;;;;;;6.53;1.08;;;;;;;1.60;38.63;101650.06;5045454;28;20064;-67
2023/03/16 07:57:10;;;;;;;2.20;0.73;;;;;;;2.08;38.33;101647.91;5047417;28;20119;-68
2023/03/16 07:59:41;;;;;;;2.30;0.90;;;;;;;1.26;39.08;101643.66;5039254;28;20573;-68
2023/03/16 08:02:12;;;;;;;2.42;0.75;;;;;;;2.07;38.23;101653.91;5038949;28;20560;-68
2023/03/16 08:04:41;;;;;;;2.90;0.77;;;;;;;2.05;38.16;101653.91;5037431;28;20047;-65
2023/03/16 08:07:09;;;;;;;8.45;1.38;;;;;;;1.74;38.37;101650.19;5047601;28;20382;-68
2023/03/16 08:10:00;;;;;;;2.72;0.80;;;;;;;2.22;38.09;101646.31;5053669;28;20033;-68
2023/03/16 08:12:32;;;;;;;1.70;0.95;;;;;;;2.69;37.77;101635.41;5039951;28;20062;-67
2023/03/16 08:14:58;;;;;;;3.75;0.82;;;;;;;2.80;37.35;101644.91;5046602;28;20044;-68
2023/03/16 08:17:27;;;;;;;3.92;1.23;;;;;;;2.83;37.22;101644.94;5036059;28;20060;-66
2023/03/16 08:19:53;;;;;;;5.78;1.23;;;;;;;2.56;38.00;101643.94;5055596;28;20396;-68
2023/03/16 08:22:20;;;;;;;2.30;0.75;;;;;;;2.47;37.24;101643.88;5038813;28;20050;-68
2023/03/16 08:24:47;;;;;;;2.58;0.65;;;;;;;2.67;37.38;101650.00;5040213;28;20544;-66
2023/03/16 08:27:15;;;;;;;3.53;1.15;;;;;;;2.46;37.78;101648.16;5023152;28;20028;-67
2023/03/16 08:29:45;;;;;;;3.65;0.93;;;;;;;1.96;38.47;101648.66;5039605;28;20036;-66
2023/03/16 08:32:15;;;;;;;7.32;1.15;;;;;;;2.20;37.99;101642.84;5052681;28;20039;-69
2023/03/16 08:34:42;;;;;;;2.03;1.10;;;;;;;2.65;37.36;101656.03;5052151;28;20062;-69
2023/03/16 08:37:09;;;;;;;3.35;0.73;;;;;;;2.57;38.24;101653.38;5042015;28;20087;-68
2023/03/16 08:39:34;;;;;;;2.88;0.80;;;;;;;2.23;38.74;101655.75;5041194;28;20036;-67
2023/03/16 08:42:05;;;;;;;2.40;0.95;;;;;;;2.39;38.61;101653.28;5039733;28;20488;-67
2023/03/16 08:44:54;;;;;;;3.92;1.15;;;;;;;2.44;38.27;101657.59;5052724;28;21018;-68
2023/03/16 08:47:24;;;;;;;7.90;1.80;;;;;;;1.81;40.19;101651.97;5043677;28;20103;-68
2023/03/16 08:49:51;;;;;;;3.50;1.02;;;;;;;2.45;38.95;101643.00;5036807;28;21275;-67
2023/03/16 08:52:17;;;;;;;4.18;1.00;;;;;;;2.65;38.83;101646.56;5044777;28;20032;-67
2023/03/16 08:54:43;;;;;;;4.88;1.30;;;;;;;2.60;38.99;101647.38;5053425;28;20047;-67
2023/03/16 08:57:09;;;;;;;3.38;0.90;;;;;;;2.09;39.49;101640.19;5055283;28;20040;-68
2023/03/16 08:59:35;;;;;;;4.88;1.70;;;;;;;1.91;39.57;101638.31;5050243;28;20043;-68
2023/03/16 09:02:03;;;;;;;3.30;1.20;;;;;;;2.31;39.94;101638.63;5054742;28;20032;-68
2023/03/16 09:04:29;;;;;;;3.05;0.85;;;;;;;2.62;39.78;101630.19;5051852;28;20128;-66
2023/03/16 09:06:55;;;;;;;4.15;0.88;;;;;;;2.31;40.38;101641.19;5050945;28;20032;-67
2023/03/16 09:09:21;;;;;;;6.28;1.42;;;;;;;3.03;40.03;101635.53;5049850;28;20029;-66
2023/03/16 09:11:48;;;;;;;6.20;1.27;;;;;;;1.51;41.91;101637.94;5051354;28;20682;-66
2023/03/16 09:14:14;;;;;;;6.10;1.65;;;;;;;2.13;41.84;101633.31;5051348;28;20036;-67
2023/03/16 09:16:40;;;;;;;2.45;0.82;;;;;;;2.05;41.53;101632.41;5051966;28;20563;-67
2023/03/16 09:19:06;;;;;;;1.35;0.63;;;;;;;2.23;41.33;101617.06;5051231;28;20203;-67
2023/03/16 09:21:33;;;;;;;4.80;1.27;;;;;;;2.22;42.04;101625.66;5052289;28;20526;-69
2023/03/16 09:23:59;;;;;;;2.75;1.02;;;;;;;2.61;41.88;101633.63;5051716;28;20481;-67
2023/03/16 09:26:25;;;;;;;5.10;0.98;;;;;;;2.29;42.98;101636.88;5052510;28;20735;-66
2023/03/16 09:28:50;;;;;;;6.30;1.30;;;;;;;2.69;41.71;101630.22;5051990;28;20473;-67
2023/03/16 09:31:18;;;;;;;3.83;0.93;;;;;;;2.49;42.06;101629.28;5051642;28;20136;-67
2023/03/16 09:33:45;;;;;;;3.60;0.88;;;;;;;2.77;41.56;101628.53;5033240;28;20043;-67
2023/03/16 09:36:10;;;;;;;1.85;0.90;;;;;;;2.18;42.89;101626.50;5051044;28;21137;-68
2023/03/16 09:38:37;;;;;;;5.43;1.17;;;;;;;3.36;41.01;101631.38;5050580;28;20110;-66
2023/03/16 09:41:38;;;;;;;6.95;2.60;;;;;;;2.63;42.07;101625.03;5050262;28;20044;-67
2023/03/16 09:44:09;;;;;;;4.20;1.40;;;;;;;2.69;41.74;101627.66;5041090;28;20044;-67
2023/03/16 09:46:47;;;;;;;5.03;1.33;;;;;;;3.28;40.07;101622.69;5048530;28;20841;-66
2023/03/16 09:49:19;;;;;;;2.22;1.08;;;;;;;2.66;41.14;101617.28;5049697;28;20039;-68
2023/03/16 09:52:22;;;;;;;5.72;1.00;;;;;;;2.92;41.12;101613.97;5051704;28;20043;-66
2023/03/16 09:54:58;;;;;;;3.45;0.93;;;;;;;3.05;41.19;101614.91;5055069;28;20052;-66
2023/03/16 09:57:28;;;;;;;4.20;1.20;;;;;;;3.42;41.33;101605.53;5055833;28;20584;-66
2023/03/16 10:00:01;;;;;;;4.55;1.52;;;;;;;3.30;41.96;101605.50;5049790;28;20074;-68
2023/03/16 10:02:27;;;;;;;1.77;0.70;;;;;;;3.02;42.24;101601.94;5048751;28;20025;-68
2023/03/16 10:05:12;;;;;;;4.15;0.98;;;;;;;2.84;42.94;101606.19;5049517;28;20193;-67
2023/03/16 10:07:51;;;;;;;2.70;1.05;;;;;;;3.19;42.63;101598.56;5046133;28;20052;-65
2023/03/16 10:10:32;;;;;;;3.10;1.48;;;;;;;3.77;42.12;101604.69;5052647;28;20531;-68
2023/03/16 10:13:00;;;;;;;5.75;1.80;;;;;;;3.57;42.25;101605.53;5049855;28;20036;-68
2023/03/16 10:15:30;;;;;;;5.43;1.35;;;;;;;4.07;41.53;101600.34;5052755;28;20165;-68
2023/03/16 10:18:02;;;;;;;2.78;1.40;;;;;;;3.86;42.03;101588.31;5035160;28;20035;-67
2023/03/16 10:20:32;;;;;;;1.90;0.77;;;;;;;4.06;41.39;101596.91;5047323;28;20036;-67
2023/03/16 10:23:00;;;;;;;8.00;1.55;;;;;;;4.09;41.05;101593.47;5045847;28;20160;-71
2023/03/16 10:25:49;;;;;;;2.20;1.25;;;;;;;3.97;41.27;101595.19;5048345;28;20675;-68
2023/03/16 10:28:18;;;;;;;2.20;1.33;;;;;;;3.42;42.61;101597.75;5034601;28;20594;-70
2023/03/16 10:30:46;;;;;;;3.25;1.50;;;;;;;4.09;42.38;101594.31;5035629;28;20525;-68
2023/03/16 10:33:32;;;;;;;4.78;1.30;;;;;;;3.54;42.84;101590.03;5039698;28;20090;-70
2023/03/16 10:36:33;;;;;;;5.78;1.35;;;;;;;4.01;42.12;101590.91;5043301;28;21772;-69
2023/03/16 10:39:02;;;;;;;4.13;1.23;;;;;;;4.57;41.81;101581.28;5047085;28;20461;-70
2023/03/16 10:41:34;;;;;;;3.03;1.25;;;;;;;4.04;42.40;101571.91;5049067;28;20028;-68
2023/03/16 10:44:15;;;;;;;4.72;0.73;;;;;;;3.91;42.83;101574.50;5047562;28;20036;-68
2023/03/16 10:46:49;;;;;;;2.60;0.88;;;;;;;4.45;42.12;101571.81;5047792;28;20137;-70
2023/03/16 10:49:24;;;;;;;3.67;1.30;;;;;;;4.46;42.57;101572.69;5045750;28;20155;-69
2023/03/16 10:51:52;;;;;;;5.95;1.65;;;;;;;4.02;42.87;101577.09;5048187;28;20040;-69
2023/03/16 10:54:36;;;;;;;4.97;1.15;;;;;;;4.08;43.45;101573.66;5045968;28;20121;-70
2023/03/16 10:57:22;;;;;;;11.85;1.80;;;;;;;4.67;42.35;101570.00;5048262;28;20390;-68
2023/03/16 10:59:50;;;;;;;4.38;1.20;;;;;;;3.64;45.06;101569.34;5031101;28;20063;-69
2023/03/16 11:02:29;;;;;;;7.80;1.80;;;;;;;3.96;44.00;101567.63;5046997;28;20036;-71
2023/03/16 11:04:56;;;;;;;3.72;1.20;;;;;;;3.98;43.88;101572.78;5046565;28;20680;-70
2023/03/16 11:07:23;;;;;;;2.25;0.95;;;;;;;4.33;44.37;101567.53;5047051;28;20067;-70
2023/03/16 11:09:54;;;;;;;3.17;1.33;;;;;;;5.03;43.27;101555.16;5044178;28;20497;-68
2023/03/16 11:12:27;;;;;;;5.00;0.88;;;;;;;5.02;43.72;101558.66;5045714;28;20038;-69
2023/03/16 11:14:53;;;;;;;2.85;1.35;;;;;;;4.37;45.32;101539.94;5046516;28;20047;-68
2023/03/16 11:17:38;;;;;;;4.53;1.23;;;;;;;4.98;44.01;101543.97;5046941;28;20033;-69
2023/03/16 11:20:13;;;;;;;3.92;1.95;;;;;;;5.06;44.03;101544.81;5051034;28;20044;-69
2023/03/16 11:22:41;;;;;;;3.83;1.08;;;;;;;5.78;43.26;101551.16;5050961;28;20330;-70
2023/03/16 11:25:08;;;;;;;7.85;1.13;;;;;;;4.56;43.84;101543.28;5052782;28;20284;-70
2023/03/16 11:27:43;;;;;;;3.05;1.00;;;;;;;5.01;42.98;101536.19;5049042;28;20539;-70
2023/03/16 11:30:14;;;;;;;1.52;0.80;;;;;;;4.18;45.67;101533.94;5052145;28;20098;-69
2023/03/16 11:32:52;;;;;;;6.17;1.40;;;;;;;5.31;44.80;101540.31;5050575;28;20327;-69
2023/03/16 11:35:57;;;;;;;3.40;1.65;;;;;;;5.42;43.88;101532.47;5051459;28;20297;-70
2023/03/16 11:38:32;;;;;;;3.38;0.88;;;;;;;6.19;42.45;101522.19;5022912;28;20246;-70
2023/03/16 11:41:00;;;;;;;5.88;0.95;;;;;;;5.08;44.37;101526.63;5048534;28;20094;-70
2023/03/16 11:44:23;;;;;;;2.30;0.75;;;;;;;5.12;44.06;101511.06;5041967;28;20093;-70